sensor_id;sensor_type;location;lat;lon;timestamp;P1;durP1;ratioP1;P2;durP2;ratioP2
73632;SDS011;61927;50.080;14.418;2023-05-06T00:00:57;14.23;;;6.20;;
73632;SDS011;61927;50.080;14.418;2023-05-06T00:03:23;12.00;;;5.10;;
73632;SDS011;61927;50.080;14.418;2023-05-06T00:05:49;14.25;;;5.53;;
73632;SDS011;61927;50.080;14.418;2023-05-06T00:08:14;9.20;;;5.18;;
73632;SDS011;61927;50.080;14.418;2023-05-06T00:10:40;10.15;;;5.00;;
73632;SDS011;61927;50.080;14.418;2023-05-06T00:13:06;11.77;;;5.10;;
73632;SDS011;61927;50.080;14.418;2023-05-06T00:15:33;12.20;;;4.88;;
73632;SDS011;61927;50.080;14.418;2023-05-06T00:17:59;10.00;;;4.82;;
73632;SDS011;61927;50.080;14.418;2023-05-06T00:20:25;14.25;;;5.07;;
73632;SDS011;61927;50.080;14.418;2023-05-06T00:22:51;11.57;;;5.22;;
73632;SDS011;61927;50.080;14.418;2023-05-06T00:25:17;6.43;;;5.00;;
73632;SDS011;61927;50.080;14.418;2023-05-06T00:27:43;11.20;;;6.00;;
73632;SDS011;61927;50.080;14.418;2023-05-06T00:30:09;13.80;;;6.53;;
73632;SDS011;61927;50.080;14.418;2023-05-06T00:32:35;11.82;;;5.63;;
73632;SDS011;61927;50.080;14.418;2023-05-06T00:35:01;12.60;;;5.05;;
73632;SDS011;61927;50.080;14.418;2023-05-06T00:37:27;6.30;;;4.90;;
73632;SDS011;61927;50.080;14.418;2023-05-06T00:39:54;9.55;;;5.75;;
73632;SDS011;61927;50.080;14.418;2023-05-06T00:42:19;6.95;;;5.07;;
73632;SDS011;61927;50.080;14.418;2023-05-06T00:44:48;6.32;;;5.32;;
73632;SDS011;61927;50.080;14.418;2023-05-06T00:47:15;11.18;;;5.70;;
73632;SDS011;61927;50.080;14.418;2023-05-06T00:49:42;7.30;;;5.13;;
73632;SDS011;61927;50.080;14.418;2023-05-06T00:52:10;14.82;;;6.45;;
73632;SDS011;61927;50.080;14.418;2023-05-06T00:54:36;8.90;;;5.78;;
73632;SDS011;61927;50.080;14.418;2023-05-06T00:57:01;13.05;;;6.03;;
73632;SDS011;61927;50.080;14.418;2023-05-06T00:59:28;7.20;;;4.88;;
73632;SDS011;61927;50.080;14.418;2023-05-06T01:01:53;11.55;;;5.32;;
73632;SDS011;61927;50.080;14.418;2023-05-06T01:04:19;15.45;;;5.40;;
73632;SDS011;61927;50.080;14.418;2023-05-06T01:06:54;10.88;;;5.53;;
73632;SDS011;61927;50.080;14.418;2023-05-06T01:12:06;15.38;;;5.15;;
73632;SDS011;61927;50.080;14.418;2023-05-06T01:14:53;10.80;;;5.20;;
73632;SDS011;61927;50.080;14.418;2023-05-06T01:17:43;9.80;;;5.15;;
73632;SDS011;61927;50.080;14.418;2023-05-06T01:20:14;10.13;;;4.88;;
73632;SDS011;61927;50.080;14.418;2023-05-06T01:22:42;7.65;;;4.45;;
73632;SDS011;61927;50.080;14.418;2023-05-06T01:25:16;9.15;;;5.22;;
73632;SDS011;61927;50.080;14.418;2023-05-06T01:27:43;9.23;;;5.20;;
73632;SDS011;61927;50.080;14.418;2023-05-06T01:30:09;12.90;;;5.50;;
73632;SDS011;61927;50.080;14.418;2023-05-06T01:35:53;9.73;;;5.47;;
73632;SDS011;61927;50.080;14.418;2023-05-06T01:41:14;8.65;;;5.13;;
73632;SDS011;61927;50.080;14.418;2023-05-06T01:43:41;8.27;;;5.28;;
73632;SDS011;61927;50.080;14.418;2023-05-06T01:46:16;14.07;;;6.93;;
73632;SDS011;61927;50.080;14.418;2023-05-06T01:48:51;12.57;;;5.20;;
73632;SDS011;61927;50.080;14.418;2023-05-06T01:51:19;12.10;;;5.03;;
73632;SDS011;61927;50.080;14.418;2023-05-06T01:53:45;9.70;;;5.80;;
73632;SDS011;61927;50.080;14.418;2023-05-06T01:56:11;10.63;;;5.60;;
73632;SDS011;61927;50.080;14.418;2023-05-06T01:58:37;8.95;;;5.55;;
73632;SDS011;61927;50.080;14.418;2023-05-06T02:01:02;9.82;;;5.75;;
73632;SDS011;61927;50.080;14.418;2023-05-06T02:03:28;8.90;;;5.68;;
73632;SDS011;61927;50.080;14.418;2023-05-06T02:05:54;10.68;;;5.70;;
73632;SDS011;61927;50.080;14.418;2023-05-06T02:08:19;15.80;;;6.82;;
73632;SDS011;61927;50.080;14.418;2023-05-06T02:10:45;12.68;;;5.55;;
73632;SDS011;61927;50.080;14.418;2023-05-06T02:13:11;11.30;;;6.22;;
73632;SDS011;61927;50.080;14.418;2023-05-06T02:15:36;10.48;;;5.55;;
73632;SDS011;61927;50.080;14.418;2023-05-06T02:18:02;6.63;;;5.68;;
73632;SDS011;61927;50.080;14.418;2023-05-06T02:20:28;8.65;;;5.70;;
73632;SDS011;61927;50.080;14.418;2023-05-06T02:22:53;14.88;;;5.78;;
73632;SDS011;61927;50.080;14.418;2023-05-06T02:25:19;7.85;;;5.32;;
73632;SDS011;61927;50.080;14.418;2023-05-06T02:27:45;12.05;;;6.55;;
73632;SDS011;61927;50.080;14.418;2023-05-06T02:30:11;12.07;;;6.13;;
73632;SDS011;61927;50.080;14.418;2023-05-06T02:32:36;11.02;;;6.63;;
73632;SDS011;61927;50.080;14.418;2023-05-06T02:35:02;10.10;;;6.03;;
73632;SDS011;61927;50.080;14.418;2023-05-06T02:37:28;16.65;;;6.32;;
73632;SDS011;61927;50.080;14.418;2023-05-06T02:39:54;7.15;;;5.80;;
73632;SDS011;61927;50.080;14.418;2023-05-06T02:42:19;10.23;;;6.18;;
73632;SDS011;61927;50.080;14.418;2023-05-06T02:44:45;9.85;;;6.45;;
73632;SDS011;61927;50.080;14.418;2023-05-06T02:47:11;7.63;;;5.90;;
73632;SDS011;61927;50.080;14.418;2023-05-06T02:49:37;12.57;;;5.40;;
73632;SDS011;61927;50.080;14.418;2023-05-06T02:52:03;7.68;;;5.93;;
73632;SDS011;61927;50.080;14.418;2023-05-06T02:54:30;8.05;;;5.70;;
73632;SDS011;61927;50.080;14.418;2023-05-06T02:56:55;8.20;;;5.55;;
73632;SDS011;61927;50.080;14.418;2023-05-06T02:59:22;8.05;;;5.63;;
73632;SDS011;61927;50.080;14.418;2023-05-06T03:01:47;8.82;;;6.40;;
73632;SDS011;61927;50.080;14.418;2023-05-06T03:04:13;8.93;;;5.78;;
73632;SDS011;61927;50.080;14.418;2023-05-06T03:06:38;7.20;;;5.88;;
73632;SDS011;61927;50.080;14.418;2023-05-06T03:09:04;10.30;;;5.70;;
73632;SDS011;61927;50.080;14.418;2023-05-06T03:11:31;9.15;;;5.80;;
73632;SDS011;61927;50.080;14.418;2023-05-06T03:13:57;6.97;;;5.30;;
73632;SDS011;61927;50.080;14.418;2023-05-06T03:16:22;9.00;;;5.18;;
73632;SDS011;61927;50.080;14.418;2023-05-06T03:18:49;7.75;;;5.35;;
73632;SDS011;61927;50.080;14.418;2023-05-06T03:21:14;6.82;;;5.47;;
73632;SDS011;61927;50.080;14.418;2023-05-06T03:23:40;10.15;;;5.57;;
73632;SDS011;61927;50.080;14.418;2023-05-06T03:26:06;7.95;;;5.90;;
73632;SDS011;61927;50.080;14.418;2023-05-06T03:28:31;9.45;;;5.70;;
73632;SDS011;61927;50.080;14.418;2023-05-06T03:30:57;7.40;;;5.70;;
73632;SDS011;61927;50.080;14.418;2023-05-06T03:33:23;7.80;;;5.90;;
73632;SDS011;61927;50.080;14.418;2023-05-06T03:35:48;9.27;;;6.20;;
73632;SDS011;61927;50.080;14.418;2023-05-06T03:38:14;13.18;;;5.95;;
73632;SDS011;61927;50.080;14.418;2023-05-06T03:40:40;15.35;;;6.40;;
73632;SDS011;61927;50.080;14.418;2023-05-06T03:43:05;12.10;;;6.07;;
73632;SDS011;61927;50.080;14.418;2023-05-06T03:45:31;11.75;;;5.90;;
73632;SDS011;61927;50.080;14.418;2023-05-06T03:47:57;10.70;;;6.22;;
73632;SDS011;61927;50.080;14.418;2023-05-06T03:50:22;9.95;;;6.22;;
73632;SDS011;61927;50.080;14.418;2023-05-06T03:52:48;7.82;;;6.50;;
73632;SDS011;61927;50.080;14.418;2023-05-06T03:55:13;11.60;;;6.65;;
73632;SDS011;61927;50.080;14.418;2023-05-06T03:57:39;11.55;;;5.88;;
73632;SDS011;61927;50.080;14.418;2023-05-06T04:00:05;11.43;;;6.10;;
73632;SDS011;61927;50.080;14.418;2023-05-06T04:02:33;9.18;;;6.00;;
73632;SDS011;61927;50.080;14.418;2023-05-06T04:04:59;7.68;;;5.35;;
73632;SDS011;61927;50.080;14.418;2023-05-06T04:07:25;7.97;;;6.13;;
73632;SDS011;61927;50.080;14.418;2023-05-06T04:09:51;9.38;;;6.25;;
73632;SDS011;61927;50.080;14.418;2023-05-06T04:12:16;8.05;;;5.78;;
73632;SDS011;61927;50.080;14.418;2023-05-06T04:14:42;14.02;;;5.80;;
73632;SDS011;61927;50.080;14.418;2023-05-06T04:17:08;12.85;;;5.75;;
73632;SDS011;61927;50.080;14.418;2023-05-06T04:19:33;8.25;;;5.93;;
73632;SDS011;61927;50.080;14.418;2023-05-06T04:21:59;11.50;;;5.55;;
73632;SDS011;61927;50.080;14.418;2023-05-06T04:24:24;9.23;;;6.00;;
73632;SDS011;61927;50.080;14.418;2023-05-06T04:26:52;13.80;;;5.80;;
73632;SDS011;61927;50.080;14.418;2023-05-06T04:29:18;7.50;;;5.55;;
73632;SDS011;61927;50.080;14.418;2023-05-06T04:31:44;8.25;;;5.38;;
73632;SDS011;61927;50.080;14.418;2023-05-06T04:34:10;10.80;;;5.40;;
73632;SDS011;61927;50.080;14.418;2023-05-06T04:36:36;8.38;;;5.53;;
73632;SDS011;61927;50.080;14.418;2023-05-06T04:39:02;6.07;;;5.30;;
73632;SDS011;61927;50.080;14.418;2023-05-06T04:41:28;9.50;;;5.75;;
73632;SDS011;61927;50.080;14.418;2023-05-06T04:43:55;7.38;;;5.88;;
73632;SDS011;61927;50.080;14.418;2023-05-06T04:46:21;9.52;;;6.25;;
73632;SDS011;61927;50.080;14.418;2023-05-06T04:48:47;9.38;;;6.05;;
73632;SDS011;61927;50.080;14.418;2023-05-06T04:51:13;10.77;;;6.03;;
73632;SDS011;61927;50.080;14.418;2023-05-06T04:53:39;11.77;;;6.00;;
73632;SDS011;61927;50.080;14.418;2023-05-06T04:56:05;10.13;;;6.55;;
73632;SDS011;61927;50.080;14.418;2023-05-06T04:58:32;10.48;;;6.18;;
73632;SDS011;61927;50.080;14.418;2023-05-06T05:01:00;14.05;;;6.72;;
73632;SDS011;61927;50.080;14.418;2023-05-06T05:03:27;10.43;;;6.38;;
73632;SDS011;61927;50.080;14.418;2023-05-06T05:05:53;8.07;;;6.40;;
73632;SDS011;61927;50.080;14.418;2023-05-06T05:08:18;14.80;;;6.43;;
73632;SDS011;61927;50.080;14.418;2023-05-06T05:10:44;11.48;;;6.30;;
73632;SDS011;61927;50.080;14.418;2023-05-06T05:13:10;9.35;;;5.88;;
73632;SDS011;61927;50.080;14.418;2023-05-06T05:15:36;10.50;;;6.13;;
73632;SDS011;61927;50.080;14.418;2023-05-06T05:18:02;14.45;;;6.93;;
73632;SDS011;61927;50.080;14.418;2023-05-06T05:20:28;9.10;;;6.82;;
73632;SDS011;61927;50.080;14.418;2023-05-06T05:22:53;8.70;;;6.15;;
73632;SDS011;61927;50.080;14.418;2023-05-06T05:25:19;8.73;;;6.18;;
73632;SDS011;61927;50.080;14.418;2023-05-06T05:27:45;13.27;;;6.43;;
73632;SDS011;61927;50.080;14.418;2023-05-06T05:30:11;15.15;;;6.30;;
73632;SDS011;61927;50.080;14.418;2023-05-06T05:32:36;11.93;;;6.75;;
73632;SDS011;61927;50.080;14.418;2023-05-06T05:35:02;12.77;;;7.45;;
73632;SDS011;61927;50.080;14.418;2023-05-06T05:37:28;11.20;;;6.47;;
73632;SDS011;61927;50.080;14.418;2023-05-06T05:39:54;11.20;;;6.80;;
73632;SDS011;61927;50.080;14.418;2023-05-06T05:42:20;12.60;;;6.82;;
73632;SDS011;61927;50.080;14.418;2023-05-06T05:44:45;9.80;;;6.43;;
73632;SDS011;61927;50.080;14.418;2023-05-06T05:47:11;12.00;;;6.30;;
73632;SDS011;61927;50.080;14.418;2023-05-06T05:49:37;11.18;;;6.50;;
73632;SDS011;61927;50.080;14.418;2023-05-06T05:52:02;14.25;;;5.80;;
73632;SDS011;61927;50.080;14.418;2023-05-06T05:54:28;12.68;;;6.75;;
73632;SDS011;61927;50.080;14.418;2023-05-06T05:56:54;12.25;;;6.78;;
73632;SDS011;61927;50.080;14.418;2023-05-06T05:59:19;9.35;;;6.25;;
73632;SDS011;61927;50.080;14.418;2023-05-06T06:01:45;11.35;;;6.53;;
73632;SDS011;61927;50.080;14.418;2023-05-06T06:04:11;12.77;;;6.60;;
73632;SDS011;61927;50.080;14.418;2023-05-06T06:06:36;9.68;;;5.97;;
73632;SDS011;61927;50.080;14.418;2023-05-06T06:09:02;11.60;;;6.40;;
73632;SDS011;61927;50.080;14.418;2023-05-06T06:11:28;8.23;;;5.88;;
73632;SDS011;61927;50.080;14.418;2023-05-06T06:13:54;10.90;;;6.30;;
73632;SDS011;61927;50.080;14.418;2023-05-06T06:16:20;7.78;;;6.22;;
73632;SDS011;61927;50.080;14.418;2023-05-06T06:18:45;19.75;;;6.75;;
73632;SDS011;61927;50.080;14.418;2023-05-06T06:21:11;15.55;;;6.18;;
73632;SDS011;61927;50.080;14.418;2023-05-06T06:23:37;12.52;;;6.05;;
73632;SDS011;61927;50.080;14.418;2023-05-06T06:26:02;9.02;;;5.93;;
73632;SDS011;61927;50.080;14.418;2023-05-06T06:28:29;7.63;;;5.97;;
73632;SDS011;61927;50.080;14.418;2023-05-06T06:30:55;10.20;;;5.80;;
73632;SDS011;61927;50.080;14.418;2023-05-06T06:33:21;15.63;;;6.22;;
73632;SDS011;61927;50.080;14.418;2023-05-06T06:35:46;8.27;;;5.80;;
73632;SDS011;61927;50.080;14.418;2023-05-06T06:38:12;9.32;;;6.22;;
73632;SDS011;61927;50.080;14.418;2023-05-06T06:40:38;10.43;;;6.05;;
73632;SDS011;61927;50.080;14.418;2023-05-06T06:43:04;18.02;;;6.75;;
73632;SDS011;61927;50.080;14.418;2023-05-06T06:45:29;8.98;;;6.43;;
73632;SDS011;61927;50.080;14.418;2023-05-06T06:47:55;8.57;;;6.15;;
73632;SDS011;61927;50.080;14.418;2023-05-06T06:50:21;13.32;;;6.70;;
73632;SDS011;61927;50.080;14.418;2023-05-06T06:52:47;17.52;;;6.03;;
73632;SDS011;61927;50.080;14.418;2023-05-06T06:55:12;9.02;;;6.03;;
73632;SDS011;61927;50.080;14.418;2023-05-06T06:57:38;11.38;;;6.55;;
73632;SDS011;61927;50.080;14.418;2023-05-06T07:00:05;7.40;;;5.60;;
73632;SDS011;61927;50.080;14.418;2023-05-06T07:02:31;16.05;;;6.97;;
73632;SDS011;61927;50.080;14.418;2023-05-06T07:04:57;9.95;;;6.30;;
73632;SDS011;61927;50.080;14.418;2023-05-06T07:07:22;7.45;;;6.07;;
73632;SDS011;61927;50.080;14.418;2023-05-06T07:09:48;10.05;;;6.20;;
73632;SDS011;61927;50.080;14.418;2023-05-06T07:12:14;8.57;;;5.63;;
73632;SDS011;61927;50.080;14.418;2023-05-06T07:14:39;8.88;;;5.88;;
73632;SDS011;61927;50.080;14.418;2023-05-06T07:17:05;8.15;;;5.32;;
73632;SDS011;61927;50.080;14.418;2023-05-06T07:19:31;19.33;;;6.10;;
73632;SDS011;61927;50.080;14.418;2023-05-06T07:21:57;10.38;;;4.80;;
73632;SDS011;61927;50.080;14.418;2023-05-06T07:24:23;6.82;;;5.43;;
73632;SDS011;61927;50.080;14.418;2023-05-06T07:26:49;9.27;;;5.38;;
73632;SDS011;61927;50.080;14.418;2023-05-06T07:29:14;12.40;;;5.10;;
73632;SDS011;61927;50.080;14.418;2023-05-06T07:31:40;9.10;;;4.80;;
73632;SDS011;61927;50.080;14.418;2023-05-06T07:34:06;5.30;;;4.30;;
73632;SDS011;61927;50.080;14.418;2023-05-06T07:36:32;10.23;;;5.72;;
73632;SDS011;61927;50.080;14.418;2023-05-06T07:39:05;7.00;;;5.10;;
73632;SDS011;61927;50.080;14.418;2023-05-06T07:41:31;6.57;;;4.90;;
73632;SDS011;61927;50.080;14.418;2023-05-06T07:43:56;7.68;;;4.90;;
73632;SDS011;61927;50.080;14.418;2023-05-06T07:46:22;10.23;;;5.45;;
73632;SDS011;61927;50.080;14.418;2023-05-06T07:48:48;11.27;;;6.00;;
73632;SDS011;61927;50.080;14.418;2023-05-06T07:51:14;6.47;;;5.03;;
73632;SDS011;61927;50.080;14.418;2023-05-06T07:53:40;8.68;;;4.97;;
73632;SDS011;61927;50.080;14.418;2023-05-06T07:56:05;7.07;;;4.88;;
73632;SDS011;61927;50.080;14.418;2023-05-06T07:58:31;9.07;;;5.05;;
73632;SDS011;61927;50.080;14.418;2023-05-06T08:00:57;11.35;;;5.00;;
73632;SDS011;61927;50.080;14.418;2023-05-06T08:03:23;11.02;;;5.15;;
73632;SDS011;61927;50.080;14.418;2023-05-06T08:05:49;12.70;;;4.80;;
73632;SDS011;61927;50.080;14.418;2023-05-06T08:08:15;7.90;;;4.78;;
73632;SDS011;61927;50.080;14.418;2023-05-06T08:10:42;6.80;;;4.47;;
73632;SDS011;61927;50.080;14.418;2023-05-06T08:13:08;13.57;;;4.28;;
73632;SDS011;61927;50.080;14.418;2023-05-06T08:15:34;9.10;;;3.40;;
73632;SDS011;61927;50.080;14.418;2023-05-06T08:17:59;7.65;;;3.40;;
73632;SDS011;61927;50.080;14.418;2023-05-06T08:20:25;7.97;;;3.60;;
73632;SDS011;61927;50.080;14.418;2023-05-06T08:22:51;6.18;;;3.40;;
73632;SDS011;61927;50.080;14.418;2023-05-06T08:25:17;4.10;;;3.60;;
73632;SDS011;61927;50.080;14.418;2023-05-06T08:27:42;4.90;;;3.67;;
73632;SDS011;61927;50.080;14.418;2023-05-06T08:30:08;4.00;;;3.60;;
73632;SDS011;61927;50.080;14.418;2023-05-06T08:32:34;5.32;;;3.40;;
73632;SDS011;61927;50.080;14.418;2023-05-06T08:35:00;7.45;;;3.40;;
73632;SDS011;61927;50.080;14.418;2023-05-06T08:37:25;4.25;;;3.45;;
73632;SDS011;61927;50.080;14.418;2023-05-06T08:39:51;8.32;;;3.25;;
73632;SDS011;61927;50.080;14.418;2023-05-06T08:42:17;8.32;;;3.45;;
73632;SDS011;61927;50.080;14.418;2023-05-06T08:44:42;3.97;;;3.03;;
73632;SDS011;61927;50.080;14.418;2023-05-06T08:47:08;4.88;;;3.33;;
73632;SDS011;61927;50.080;14.418;2023-05-06T08:49:34;7.60;;;2.92;;
73632;SDS011;61927;50.080;14.418;2023-05-06T08:52:02;7.82;;;3.10;;
73632;SDS011;61927;50.080;14.418;2023-05-06T08:54:30;6.78;;;3.50;;
73632;SDS011;61927;50.080;14.418;2023-05-06T08:56:58;6.45;;;3.28;;
73632;SDS011;61927;50.080;14.418;2023-05-06T08:59:28;6.72;;;3.20;;
73632;SDS011;61927;50.080;14.418;2023-05-06T09:01:55;4.53;;;3.10;;
73632;SDS011;61927;50.080;14.418;2023-05-06T09:04:21;11.95;;;2.92;;
73632;SDS011;61927;50.080;14.418;2023-05-06T09:06:47;3.00;;;2.72;;
73632;SDS011;61927;50.080;14.418;2023-05-06T09:09:12;3.15;;;2.80;;
73632;SDS011;61927;50.080;14.418;2023-05-06T09:11:39;5.80;;;3.15;;
73632;SDS011;61927;50.080;14.418;2023-05-06T09:16:42;5.85;;;3.55;;
73632;SDS011;61927;50.080;14.418;2023-05-06T09:19:09;7.00;;;3.45;;
73632;SDS011;61927;50.080;14.418;2023-05-06T09:21:39;7.88;;;3.70;;
73632;SDS011;61927;50.080;14.418;2023-05-06T09:24:07;10.63;;;3.10;;
73632;SDS011;61927;50.080;14.418;2023-05-06T09:26:34;2.40;;;2.22;;
73632;SDS011;61927;50.080;14.418;2023-05-06T09:29:01;10.55;;;3.70;;
73632;SDS011;61927;50.080;14.418;2023-05-06T09:31:28;4.45;;;3.03;;
73632;SDS011;61927;50.080;14.418;2023-05-06T09:33:54;4.45;;;3.10;;
73632;SDS011;61927;50.080;14.418;2023-05-06T09:36:21;4.53;;;3.28;;
73632;SDS011;61927;50.080;14.418;2023-05-06T09:38:48;12.85;;;6.63;;
73632;SDS011;61927;50.080;14.418;2023-05-06T09:41:18;3.65;;;3.13;;
73632;SDS011;61927;50.080;14.418;2023-05-06T09:43:45;3.75;;;3.45;;
73632;SDS011;61927;50.080;14.418;2023-05-06T09:46:14;12.98;;;8.00;;
73632;SDS011;61927;50.080;14.418;2023-05-06T09:48:40;9.80;;;2.60;;
73632;SDS011;61927;50.080;14.418;2023-05-06T09:51:07;4.63;;;3.05;;
73632;SDS011;61927;50.080;14.418;2023-05-06T09:53:33;5.88;;;3.13;;
73632;SDS011;61927;50.080;14.418;2023-05-06T09:56:02;5.43;;;3.25;;
73632;SDS011;61927;50.080;14.418;2023-05-06T09:58:29;6.70;;;2.92;;
73632;SDS011;61927;50.080;14.418;2023-05-06T10:00:56;3.47;;;3.13;;
73632;SDS011;61927;50.080;14.418;2023-05-06T10:03:22;6.80;;;3.17;;
73632;SDS011;61927;50.080;14.418;2023-05-06T10:05:49;3.80;;;3.30;;
73632;SDS011;61927;50.080;14.418;2023-05-06T10:08:17;6.50;;;3.95;;
73632;SDS011;61927;50.080;14.418;2023-05-06T10:10:44;4.78;;;3.53;;
73632;SDS011;61927;50.080;14.418;2023-05-06T10:13:12;3.63;;;3.15;;
73632;SDS011;61927;50.080;14.418;2023-05-06T10:15:37;4.63;;;2.90;;
73632;SDS011;61927;50.080;14.418;2023-05-06T10:18:04;4.15;;;3.17;;
73632;SDS011;61927;50.080;14.418;2023-05-06T10:20:33;2.60;;;2.40;;
73632;SDS011;61927;50.080;14.418;2023-05-06T10:23:00;4.88;;;2.60;;
73632;SDS011;61927;50.080;14.418;2023-05-06T10:25:34;3.55;;;2.42;;
73632;SDS011;61927;50.080;14.418;2023-05-06T10:28:06;5.65;;;2.58;;
73632;SDS011;61927;50.080;14.418;2023-05-06T10:30:34;2.83;;;2.60;;
73632;SDS011;61927;50.080;14.418;2023-05-06T10:33:04;10.07;;;2.70;;
73632;SDS011;61927;50.080;14.418;2023-05-06T10:40:48;3.88;;;2.83;;
73632;SDS011;61927;50.080;14.418;2023-05-06T10:43:19;2.28;;;2.10;;
73632;SDS011;61927;50.080;14.418;2023-05-06T10:46:06;4.53;;;2.50;;
73632;SDS011;61927;50.080;14.418;2023-05-06T10:48:36;8.15;;;3.00;;
73632;SDS011;61927;50.080;14.418;2023-05-06T10:53:54;2.40;;;2.30;;
73632;SDS011;61927;50.080;14.418;2023-05-06T10:56:24;3.33;;;2.87;;
73632;SDS011;61927;50.080;14.418;2023-05-06T10:58:51;7.55;;;2.88;;
73632;SDS011;61927;50.080;14.418;2023-05-06T11:01:25;3.40;;;3.15;;
73632;SDS011;61927;50.080;14.418;2023-05-06T11:03:52;3.28;;;3.00;;
73632;SDS011;61927;50.080;14.418;2023-05-06T11:06:38;9.18;;;3.40;;
73632;SDS011;61927;50.080;14.418;2023-05-06T11:09:06;15.07;;;4.93;;
73632;SDS011;61927;50.080;14.418;2023-05-06T11:11:45;11.18;;;5.15;;
73632;SDS011;61927;50.080;14.418;2023-05-06T11:14:12;4.18;;;2.72;;
73632;SDS011;61927;50.080;14.418;2023-05-06T11:16:48;7.03;;;3.13;;
73632;SDS011;61927;50.080;14.418;2023-05-06T11:19:21;9.43;;;2.63;;
73632;SDS011;61927;50.080;14.418;2023-05-06T11:21:58;6.57;;;2.60;;
73632;SDS011;61927;50.080;14.418;2023-05-06T11:24:28;12.13;;;2.90;;
73632;SDS011;61927;50.080;14.418;2023-05-06T11:26:56;5.70;;;2.53;;
73632;SDS011;61927;50.080;14.418;2023-05-06T11:29:23;6.30;;;2.35;;
73632;SDS011;61927;50.080;14.418;2023-05-06T11:31:49;4.97;;;2.65;;
73632;SDS011;61927;50.080;14.418;2023-05-06T11:36:47;6.55;;;2.58;;
73632;SDS011;61927;50.080;14.418;2023-05-06T11:39:18;8.55;;;2.42;;
73632;SDS011;61927;50.080;14.418;2023-05-06T11:41:44;10.32;;;3.15;;
73632;SDS011;61927;50.080;14.418;2023-05-06T11:44:09;14.10;;;2.45;;
73632;SDS011;61927;50.080;14.418;2023-05-06T11:46:37;4.07;;;2.13;;
73632;SDS011;61927;50.080;14.418;2023-05-06T11:49:03;2.65;;;1.70;;
73632;SDS011;61927;50.080;14.418;2023-05-06T11:51:29;2.63;;;1.50;;
73632;SDS011;61927;50.080;14.418;2023-05-06T11:54:02;2.35;;;1.80;;
73632;SDS011;61927;50.080;14.418;2023-05-06T11:56:46;1.83;;;1.73;;
73632;SDS011;61927;50.080;14.418;2023-05-06T11:59:13;3.17;;;1.83;;
73632;SDS011;61927;50.080;14.418;2023-05-06T12:01:42;4.70;;;1.70;;
73632;SDS011;61927;50.080;14.418;2023-05-06T12:04:08;2.00;;;1.63;;
73632;SDS011;61927;50.080;14.418;2023-05-06T12:06:36;1.98;;;1.73;;
73632;SDS011;61927;50.080;14.418;2023-05-06T12:09:03;6.88;;;1.88;;
73632;SDS011;61927;50.080;14.418;2023-05-06T12:11:32;3.17;;;1.60;;
73632;SDS011;61927;50.080;14.418;2023-05-06T12:14:01;3.00;;;2.20;;
73632;SDS011;61927;50.080;14.418;2023-05-06T12:16:29;2.63;;;1.55;;
73632;SDS011;61927;50.080;14.418;2023-05-06T12:18:55;5.18;;;1.80;;
73632;SDS011;61927;50.080;14.418;2023-05-06T12:21:22;1.50;;;1.30;;
73632;SDS011;61927;50.080;14.418;2023-05-06T12:23:55;7.88;;;1.80;;
73632;SDS011;61927;50.080;14.418;2023-05-06T12:26:22;2.60;;;1.52;;
73632;SDS011;61927;50.080;14.418;2023-05-06T12:29:09;4.10;;;1.55;;
73632;SDS011;61927;50.080;14.418;2023-05-06T12:31:35;5.07;;;2.03;;
73632;SDS011;61927;50.080;14.418;2023-05-06T12:34:01;3.75;;;1.58;;
73632;SDS011;61927;50.080;14.418;2023-05-06T12:36:28;3.70;;;1.25;;
73632;SDS011;61927;50.080;14.418;2023-05-06T12:38:59;5.70;;;1.38;;
73632;SDS011;61927;50.080;14.418;2023-05-06T12:41:36;8.60;;;2.33;;
73632;SDS011;61927;50.080;14.418;2023-05-06T12:46:55;2.95;;;1.45;;
73632;SDS011;61927;50.080;14.418;2023-05-06T12:49:21;4.97;;;1.60;;
73632;SDS011;61927;50.080;14.418;2023-05-06T12:52:03;6.47;;;1.80;;
73632;SDS011;61927;50.080;14.418;2023-05-06T12:54:30;10.40;;;1.90;;
73632;SDS011;61927;50.080;14.418;2023-05-06T12:56:56;4.65;;;1.67;;
73632;SDS011;61927;50.080;14.418;2023-05-06T12:59:23;1.88;;;1.60;;
73632;SDS011;61927;50.080;14.418;2023-05-06T13:01:50;2.22;;;2.03;;
73632;SDS011;61927;50.080;14.418;2023-05-06T13:04:15;5.28;;;2.38;;
73632;SDS011;61927;50.080;14.418;2023-05-06T13:06:42;2.22;;;1.90;;
73632;SDS011;61927;50.080;14.418;2023-05-06T13:09:08;1.70;;;1.60;;
73632;SDS011;61927;50.080;14.418;2023-05-06T13:11:34;2.67;;;1.70;;
73632;SDS011;61927;50.080;14.418;2023-05-06T13:13:59;4.80;;;1.70;;
73632;SDS011;61927;50.080;14.418;2023-05-06T13:16:26;1.55;;;1.45;;
73632;SDS011;61927;50.080;14.418;2023-05-06T13:18:54;3.85;;;1.83;;
73632;SDS011;61927;50.080;14.418;2023-05-06T13:21:20;5.05;;;1.73;;
73632;SDS011;61927;50.080;14.418;2023-05-06T13:23:45;6.95;;;1.65;;
73632;SDS011;61927;50.080;14.418;2023-05-06T13:26:12;2.25;;;1.40;;
73632;SDS011;61927;50.080;14.418;2023-05-06T13:28:38;5.03;;;1.90;;
73632;SDS011;61927;50.080;14.418;2023-05-06T13:31:05;3.95;;;1.30;;
73632;SDS011;61927;50.080;14.418;2023-05-06T13:33:35;1.60;;;1.50;;
73632;SDS011;61927;50.080;14.418;2023-05-06T13:36:01;35.67;;;16.80;;
73632;SDS011;61927;50.080;14.418;2023-05-06T13:38:27;13.32;;;6.25;;
73632;SDS011;61927;50.080;14.418;2023-05-06T13:40:53;2.03;;;1.38;;
73632;SDS011;61927;50.080;14.418;2023-05-06T13:43:22;1.90;;;1.60;;
73632;SDS011;61927;50.080;14.418;2023-05-06T13:45:49;1.60;;;1.50;;
73632;SDS011;61927;50.080;14.418;2023-05-06T13:48:15;1.27;;;1.17;;
73632;SDS011;61927;50.080;14.418;2023-05-06T13:50:42;11.75;;;1.75;;
73632;SDS011;61927;50.080;14.418;2023-05-06T13:53:10;11.07;;;1.58;;
73632;SDS011;61927;50.080;14.418;2023-05-06T14:02:58;1.30;;;1.20;;
73632;SDS011;61927;50.080;14.418;2023-05-06T14:05:23;1.88;;;1.42;;
73632;SDS011;61927;50.080;14.418;2023-05-06T14:07:49;3.58;;;1.33;;
73632;SDS011;61927;50.080;14.418;2023-05-06T14:10:15;2.22;;;2.00;;
73632;SDS011;61927;50.080;14.418;2023-05-06T14:12:41;2.90;;;2.50;;
73632;SDS011;61927;50.080;14.418;2023-05-06T14:15:07;5.88;;;3.03;;
73632;SDS011;61927;50.080;14.418;2023-05-06T14:17:35;4.18;;;2.58;;
73632;SDS011;61927;50.080;14.418;2023-05-06T14:20:01;4.40;;;3.25;;
73632;SDS011;61927;50.080;14.418;2023-05-06T14:22:31;4.95;;;3.47;;
73632;SDS011;61927;50.080;14.418;2023-05-06T14:24:57;11.85;;;3.30;;
73632;SDS011;61927;50.080;14.418;2023-05-06T14:27:23;5.47;;;2.20;;
73632;SDS011;61927;50.080;14.418;2023-05-06T14:29:48;1.63;;;1.52;;
73632;SDS011;61927;50.080;14.418;2023-05-06T14:32:14;4.13;;;2.00;;
73632;SDS011;61927;50.080;14.418;2023-05-06T14:34:40;2.65;;;1.83;;
73632;SDS011;61927;50.080;14.418;2023-05-06T14:37:05;3.00;;;1.48;;
73632;SDS011;61927;50.080;14.418;2023-05-06T14:39:32;2.08;;;1.50;;
73632;SDS011;61927;50.080;14.418;2023-05-06T14:41:57;4.43;;;1.48;;
73632;SDS011;61927;50.080;14.418;2023-05-06T14:44:23;2.95;;;1.55;;
73632;SDS011;61927;50.080;14.418;2023-05-06T14:46:49;5.60;;;1.88;;
73632;SDS011;61927;50.080;14.418;2023-05-06T14:49:15;7.70;;;1.83;;
73632;SDS011;61927;50.080;14.418;2023-05-06T14:51:41;1.73;;;1.63;;
73632;SDS011;61927;50.080;14.418;2023-05-06T14:54:07;2.35;;;1.63;;
73632;SDS011;61927;50.080;14.418;2023-05-06T14:56:34;6.95;;;1.90;;
73632;SDS011;61927;50.080;14.418;2023-05-06T14:59:00;4.63;;;1.75;;
73632;SDS011;61927;50.080;14.418;2023-05-06T15:01:26;4.70;;;1.60;;